Alice Paul 2 — FQDT — position and weather

sailwx.info

Track history (hours):
 
Tides and Currents Weather Stations Pressure Air Temp Water Temp Dewpoint Dewpoint Depression Visibility Wind Speed Wind Dir Waves Ship Positions

Alice Paul 2

Last reported at 2018-Jun-05 05:39 UTC. Time now 2018-Jun-18 19:33 UTC.
Position N 47°41' W 003°30'.
Warning: this ship's position is 13 days out of date.

Length 13 m.

Type: Fishing. MMSI: 228153900.

Date/timePositionNaut miles runAvg speedWind from/ knotsBaromVisibWave heightAir tempDewpointWater temp
2018-Jun-05 05:39N 47°41' W 003°30'1 8.9
2018-Jun-05 05:30N 47°41' W 003°28'4 8.1
2018-Jun-05 05:00N 47°42' W 003°22'2 0.1
2018-Jun-04 14:26N 47°44' W 003°22'0 0.0
2018-Jun-04 13:59N 47°44' W 003°22'0 0.0
2018-Jun-04 13:29N 47°44' W 003°22'0 0.0
2018-Jun-04 12:59N 47°44' W 003°22'0 0.0
2018-Jun-04 12:29N 47°44' W 003°22'0 0.0
2018-Jun-04 11:59N 47°44' W 003°22'0 0.3
2018-Jun-04 11:30N 47°44' W 003°22'0 0.0
2018-Jun-04 10:57N 47°44' W 003°22'0 0.0
2018-Jun-04 10:30N 47°44' W 003°22'0 0.0
2018-Jun-04 10:00N 47°44' W 003°22'0 0.0
2018-Jun-04 09:31N 47°44' W 003°22'0 0.0
2018-Jun-04 09:00N 47°44' W 003°22'0 0.0
2018-Jun-04 08:30N 47°44' W 003°22'0 0.0
2018-Jun-04 08:01N 47°44' W 003°22'0 0.0
2018-Jun-04 07:31N 47°44' W 003°22'0 0.0
2018-Jun-04 07:01N 47°44' W 003°22'0 0.0
2018-Jun-04 06:31N 47°44' W 003°22'0 0.0
2018-Jun-04 05:55N 47°44' W 003°22'0 0.0
2018-Jun-04 05:31N 47°44' W 003°22'0 0.0
2018-Jun-04 04:58N 47°44' W 003°22'0 0.0
2018-Jun-04 04:28N 47°44' W 003°22'0 0.0
2018-Jun-04 03:58N 47°44' W 003°22'0 0.4
2018-Jun-04 03:28N 47°44' W 003°22'0 0.0
2018-Jun-04 02:58N 47°44' W 003°22'0 0.0
2018-Jun-04 02:28N 47°44' W 003°22'0 0.0
2018-Jun-04 01:58N 47°44' W 003°22'0 0.0
2018-Jun-04 01:28N 47°44' W 003°22'0 0.0
2018-Jun-04 00:58N 47°44' W 003°22'0 0.0
2018-Jun-04 00:28N 47°44' W 003°22'0 0.0
2018-Jun-03 23:58N 47°44' W 003°22'1 1.5
2018-Jun-03 23:30N 47°43' W 003°22'3 6.9
2018-Jun-03 23:00N 47°41' W 003°26'11 0.4
2018-Jun-02 21:43N 47°31' W 003°34'7 2.2
2018-Jun-02 18:42N 47°25' W 003°29'1 4.1
2018-Jun-02 18:29N 47°26' W 003°31'2 4.0
2018-Jun-02 18:00N 47°27' W 003°32'1 2.4
2018-Jun-02 17:30N 47°28' W 003°31'2 1.7
2018-Jun-02 16:10N 47°26' W 003°30'2 3.8
2018-Jun-02 15:42N 47°28' W 003°30'1 2.9
2018-Jun-02 15:16N 47°28' W 003°32'2 0.3
2018-Jun-02 07:58N 47°26' W 003°31'5 1.4
2018-Jun-02 04:17N 47°31' W 003°32'1 3.9
2018-Jun-02 03:58N 47°32' W 003°31'2 4.0
2018-Jun-02 03:30N 47°34' W 003°31'2 4.2
2018-Jun-02 03:00N 47°35' W 003°28'2 4.2
2018-Jun-02 02:30N 47°35' W 003°24'2 3.5
2018-Jun-02 02:01N 47°37' W 003°23'3 6.7
2018-Jun-02 01:30N 47°40' W 003°22'4 6.8
2018-Jun-02 00:58N 47°44' W 003°22'0 0.0
2018-Jun-02 00:30N 47°44' W 003°22'0 0.3
2018-Jun-01 23:59N 47°44' W 003°22'0 0.0
2018-Jun-01 23:29N 47°44' W 003°22'2 4.1
2018-Jun-01 23:00N 47°42' W 003°23'4 7.8
2018-Jun-01 22:29N 47°40' W 003°28'0 0.0
2018-Jun-01 01:03N 47°40' W 003°29'1 8.1
2018-Jun-01 00:59N 47°40' W 003°28'4 8.0
2018-Jun-01 00:30N 47°42' W 003°23'2 3.8
2018-May-31 23:58N 47°44' W 003°22'0 0.0
2018-May-31 23:30N 47°44' W 003°22'3 6.4
2018-May-31 23:00N 47°41' W 003°24'3 0.2
2018-May-31 01:15N 47°40' W 003°29'2 8.4
2018-May-31 01:01N 47°40' W 003°26'4 7.6
2018-May-31 00:30N 47°43' W 003°22'1 2.0
2018-May-31 00:00N 47°44' W 003°22'0 0.0
2018-May-30 23:29N 47°44' W 003°22'3 6.3
2018-May-30 23:00N 47°41' W 003°24'4 0.2
2018-May-30 01:22N 47°40' W 003°30'3 8.4
2018-May-30 00:59N 47°41' W 003°25'4 7.1
2018-May-30 00:30N 47°44' W 003°22'0 0.5
2018-May-30 00:00N 47°44' W 003°22'0 0.0
2018-May-29 23:30N 47°44' W 003°22'2 4.5
2018-May-29 23:00N 47°42' W 003°23'5 0.2
2018-May-29 00:39N 47°40' W 003°29'1 8.0
2018-May-29 00:30N 47°40' W 003°28'4 7.8
2018-May-29 00:00N 47°42' W 003°23'2 3.8
2018-May-28 23:30N 47°44' W 003°22'1 1.1
2018-May-28 23:00N 47°43' W 003°22'4 7.5
2018-May-28 22:29N 47°41' W 003°26'2 0.1
2018-May-28 02:03N 47°40' W 003°29'1 8.4
2018-May-28 01:59N 47°40' W 003°29'4 8.3
2018-May-28 01:30N 47°42' W 003°23'  
Track history (hours):
 
Tides and Currents Weather Stations Pressure Air Temp Water Temp Dewpoint Dewpoint Depression Visibility Wind Speed Wind Dir Waves Ship Positions

Alice Paul 2

Last reported at 2018-Jun-05 05:39 UTC. Time now 2018-Jun-18 19:33 UTC.
Position N 47°41' W 003°30'.
Warning: this ship's position is 13 days out of date.

Length 13 m.

Type: Fishing. MMSI: 228153900.

Date/timePositionNaut miles runAvg speedWind from/ knotsBaromVisibWave heightAir tempDewpointWater temp
2018-Jun-05 05:39N 47°41' W 003°30'1 8.9
2018-Jun-05 05:30N 47°41' W 003°28'4 8.1
2018-Jun-05 05:00N 47°42' W 003°22'2 0.1
2018-Jun-04 14:26N 47°44' W 003°22'0 0.0
2018-Jun-04 13:59N 47°44' W 003°22'0 0.0
2018-Jun-04 13:29N 47°44' W 003°22'0 0.0
2018-Jun-04 12:59N 47°44' W 003°22'0 0.0
2018-Jun-04 12:29N 47°44' W 003°22'0 0.0
2018-Jun-04 11:59N 47°44' W 003°22'0 0.3
2018-Jun-04 11:30N 47°44' W 003°22'0 0.0
2018-Jun-04 10:57N 47°44' W 003°22'0 0.0
2018-Jun-04 10:30N 47°44' W 003°22'0 0.0
2018-Jun-04 10:00N 47°44' W 003°22'0 0.0
2018-Jun-04 09:31N 47°44' W 003°22'0 0.0
2018-Jun-04 09:00N 47°44' W 003°22'0 0.0
2018-Jun-04 08:30N 47°44' W 003°22'0 0.0
2018-Jun-04 08:01N 47°44' W 003°22'0 0.0
2018-Jun-04 07:31N 47°44' W 003°22'0 0.0
2018-Jun-04 07:01N 47°44' W 003°22'0 0.0
2018-Jun-04 06:31N 47°44' W 003°22'0 0.0
2018-Jun-04 05:55N 47°44' W 003°22'0 0.0
2018-Jun-04 05:31N 47°44' W 003°22'0 0.0
2018-Jun-04 04:58N 47°44' W 003°22'0 0.0
2018-Jun-04 04:28N 47°44' W 003°22'0 0.0
2018-Jun-04 03:58N 47°44' W 003°22'0 0.4
2018-Jun-04 03:28N 47°44' W 003°22'0 0.0
2018-Jun-04 02:58N 47°44' W 003°22'0 0.0
2018-Jun-04 02:28N 47°44' W 003°22'0 0.0
2018-Jun-04 01:58N 47°44' W 003°22'0 0.0
2018-Jun-04 01:28N 47°44' W 003°22'0 0.0
2018-Jun-04 00:58N 47°44' W 003°22'0 0.0
2018-Jun-04 00:28N 47°44' W 003°22'0 0.0
2018-Jun-03 23:58N 47°44' W 003°22'1 1.5
2018-Jun-03 23:30N 47°43' W 003°22'3 6.9
2018-Jun-03 23:00N 47°41' W 003°26'11 0.4
2018-Jun-02 21:43N 47°31' W 003°34'7 2.2
2018-Jun-02 18:42N 47°25' W 003°29'1 4.1
2018-Jun-02 18:29N 47°26' W 003°31'2 4.0
2018-Jun-02 18:00N 47°27' W 003°32'1 2.4
2018-Jun-02 17:30N 47°28' W 003°31'2 1.7
2018-Jun-02 16:10N 47°26' W 003°30'2 3.8
2018-Jun-02 15:42N 47°28' W 003°30'1 2.9
2018-Jun-02 15:16N 47°28' W 003°32'2 0.3
2018-Jun-02 07:58N 47°26' W 003°31'5 1.4
2018-Jun-02 04:17N 47°31' W 003°32'1 3.9
2018-Jun-02 03:58N 47°32' W 003°31'2 4.0
2018-Jun-02 03:30N 47°34' W 003°31'2 4.2
2018-Jun-02 03:00N 47°35' W 003°28'2 4.2
2018-Jun-02 02:30N 47°35' W 003°24'2 3.5
2018-Jun-02 02:01N 47°37' W 003°23'3 6.7
2018-Jun-02 01:30N 47°40' W 003°22'4 6.8
2018-Jun-02 00:58N 47°44' W 003°22'0 0.0
2018-Jun-02 00:30N 47°44' W 003°22'0 0.3
2018-Jun-01 23:59N 47°44' W 003°22'0 0.0
2018-Jun-01 23:29N 47°44' W 003°22'2 4.1
2018-Jun-01 23:00N 47°42' W 003°23'4 7.8
2018-Jun-01 22:29N 47°40' W 003°28'0 0.0
2018-Jun-01 01:03N 47°40' W 003°29'1 8.1
2018-Jun-01 00:59N 47°40' W 003°28'4 8.0
2018-Jun-01 00:30N 47°42' W 003°23'2 3.8
2018-May-31 23:58N 47°44' W 003°22'0 0.0
2018-May-31 23:30N 47°44' W 003°22'3 6.4
2018-May-31 23:00N 47°41' W 003°24'3 0.2
2018-May-31 01:15N 47°40' W 003°29'2 8.4
2018-May-31 01:01N 47°40' W 003°26'4 7.6
2018-May-31 00:30N 47°43' W 003°22'1 2.0
2018-May-31 00:00N 47°44' W 003°22'0 0.0
2018-May-30 23:29N 47°44' W 003°22'3 6.3
2018-May-30 23:00N 47°41' W 003°24'4 0.2
2018-May-30 01:22N 47°40' W 003°30'3 8.4
2018-May-30 00:59N 47°41' W 003°25'4 7.1
2018-May-30 00:30N 47°44' W 003°22'0 0.5
2018-May-30 00:00N 47°44' W 003°22'0 0.0
2018-May-29 23:30N 47°44' W 003°22'2 4.5
2018-May-29 23:00N 47°42' W 003°23'5 0.2
2018-May-29 00:39N 47°40' W 003°29'1 8.0
2018-May-29 00:30N 47°40' W 003°28'4 7.8
2018-May-29 00:00N 47°42' W 003°23'2 3.8
2018-May-28 23:30N 47°44' W 003°22'1 1.1
2018-May-28 23:00N 47°43' W 003°22'4 7.5
2018-May-28 22:29N 47°41' W 003°26'2 0.1
2018-May-28 02:03N 47°40' W 003°29'1 8.4
2018-May-28 01:59N 47°40' W 003°29'4 8.3
2018-May-28 01:30N 47°42' W 003°23'  

Dump ship's entire track history